Time;durP1;ratioP1;P1;durP2;ratioP2;P2;SDS_P1;SDS_P2;PMS_P1;PMS_P2;Temp;Humidity;BMP_temperature;BMP_pressure;BME280_temperature;BME280_humidity;BME280_pressure;Samples;Min_cycle;Max_cycle;Signal;HPM_P1;HPM_P2
2020/12/29 00:01:43;;;;;;;10.67;5.73;;;;;;;5.60;72.89;95820.45;119970;1143;65098;-90
2020/12/29 00:04:16;;;;;;;10.23;5.70;;;;;;;5.53;72.90;95816.75;119939;1144;65066;-90
2020/12/29 00:06:46;;;;;;;8.60;4.83;;;;;;;5.48;73.63;95821.71;120012;1143;65079;-89
2020/12/29 00:09:14;;;;;;;6.27;4.13;;;;;;;5.43;73.11;95813.41;119940;1143;65228;-91
2020/12/29 00:11:42;;;;;;;10.35;4.90;;;;;;;5.40;73.34;95805.77;119863;1144;64976;-91
2020/12/29 00:14:10;;;;;;;10.57;5.67;;;;;;;5.40;73.59;95803.95;119982;1143;65056;-91
2020/12/29 00:16:37;;;;;;;10.40;5.90;;;;;;;5.42;73.59;95802.00;119979;1143;65094;-91
2020/12/29 00:19:10;;;;;;;12.30;5.97;;;;;;;5.43;73.36;95795.70;119915;1144;65606;-90
2020/12/29 00:21:38;;;;;;;13.45;6.75;;;;;;;5.49;73.20;95798.72;119853;1143;65175;-90
2020/12/29 00:24:05;;;;;;;11.30;6.97;;;;;;;5.52;73.44;95793.92;119954;1142;65079;-92
2020/12/29 00:26:32;;;;;;;11.67;6.50;;;;;;;5.52;73.72;95801.86;119959;1144;65111;-92
2020/12/29 00:28:58;;;;;;;13.03;6.90;;;;;;;5.53;73.69;95807.98;119954;1143;65423;-89
2020/12/29 00:31:25;;;;;;;15.27;7.77;;;;;;;5.51;73.68;95810.80;119853;1144;65213;-91
2020/12/29 00:33:57;;;;;;;14.43;7.40;;;;;;;5.49;73.77;95809.30;119888;1143;65194;-93
2020/12/29 00:36:25;;;;;;;15.20;7.70;;;;;;;5.48;73.23;95808.48;119958;1143;65092;-91
2020/12/29 00:38:53;;;;;;;15.30;6.97;;;;;;;5.48;73.66;95810.30;119853;1144;65222;-88
2020/12/29 00:41:19;;;;;;;15.00;7.90;;;;;;;5.46;74.10;95809.60;119918;1144;65067;-88
2020/12/29 00:43:46;;;;;;;12.07;6.27;;;;;;;5.43;73.42;95803.65;119929;1144;65146;-92
2020/12/29 00:46:16;;;;;;;9.73;5.70;;;;;;;5.42;73.67;95806.46;119971;1143;65175;-90
2020/12/29 00:48:43;;;;;;;10.00;5.20;;;;;;;5.45;74.15;95816.72;119907;1144;66288;-92
2020/12/29 00:51:14;;;;;;;11.07;5.47;;;;;;;5.47;73.76;95816.55;119868;1144;65178;-90
2020/12/29 00:53:46;;;;;;;7.23;4.77;;;;;;;5.48;73.89;95824.36;119924;1143;65081;-92
2020/12/29 00:56:15;;;;;;;7.70;5.13;;;;;;;5.50;73.77;95827.66;119999;1143;65002;-92
2020/12/29 00:58:42;;;;;;;9.07;5.20;;;;;;;5.46;73.89;95821.02;119929;1144;65194;-90
2020/12/29 01:01:10;;;;;;;7.70;5.77;;;;;;;5.36;73.87;95828.26;119933;1144;65188;-90
2020/12/29 01:03:38;;;;;;;10.30;6.47;;;;;;;5.26;73.65;95831.00;119965;1144;65124;-88
2020/12/29 01:06:05;;;;;;;9.50;6.07;;;;;;;5.18;73.73;95828.31;119912;1143;65201;-89
2020/12/29 01:08:33;;;;;;;14.50;7.33;;;;;;;5.15;74.16;95821.53;119970;1144;65076;-91
2020/12/29 01:11:02;;;;;;;10.00;6.67;;;;;;;5.13;74.26;95814.72;119898;1143;65241;-89
2020/12/29 01:13:38;;;;;;;10.73;7.27;;;;;;;5.06;73.93;95822.45;119904;1143;65172;-90
2020/12/29 01:16:06;;;;;;;11.23;6.20;;;;;;;5.06;74.18;95811.87;119918;1144;65087;-91
2020/12/29 01:18:33;;;;;;;10.80;6.27;;;;;;;5.08;73.53;95812.53;119909;1143;65116;-90
2020/12/29 01:21:00;;;;;;;9.93;5.87;;;;;;;5.11;74.30;95816.70;119918;1144;65065;-90
2020/12/29 01:23:26;;;;;;;10.00;6.50;;;;;;;5.14;74.28;95822.49;119917;1144;65224;-91
2020/12/29 01:25:52;;;;;;;12.53;6.83;;;;;;;5.18;74.37;95817.73;119924;1143;65190;-89
2020/12/29 01:28:19;;;;;;;12.90;7.83;;;;;;;5.21;74.55;95819.22;119924;1143;65110;-90
2020/12/29 01:30:45;;;;;;;11.53;8.17;;;;;;;5.23;74.68;95819.92;119949;1143;65154;-92
2020/12/29 01:33:12;;;;;;;13.23;8.30;;;;;;;5.22;74.37;95823.55;119961;1144;65161;-89
2020/12/29 01:35:38;;;;;;;17.45;9.00;;;;;;;5.20;74.38;95828.98;119908;1143;65214;-90
2020/12/29 01:38:05;;;;;;;16.73;9.85;;;;;;;5.19;73.79;95824.67;119942;1144;65108;-88
2020/12/29 01:40:33;;;;;;;18.37;9.23;;;;;;;5.17;73.91;95825.83;119891;1144;65092;-90
2020/12/29 01:43:00;;;;;;;13.67;9.10;;;;;;;5.14;74.26;95832.24;119960;1143;65060;-89
2020/12/29 01:45:26;;;;;;;14.57;9.07;;;;;;;5.13;74.06;95835.88;119913;1144;65146;-91
2020/12/29 01:47:54;;;;;;;11.45;7.50;;;;;;;5.11;74.13;95840.50;119929;1143;65101;-93
2020/12/29 01:50:23;;;;;;;11.90;7.53;;;;;;;5.10;74.02;95839.68;120002;1144;65090;-91
2020/12/29 01:53:00;;;;;;;9.50;5.30;;;;;;;5.14;74.46;95840.18;119929;1144;65191;-89
2020/12/29 01:55:28;;;;;;;10.50;6.23;;;;;;;5.19;74.29;95837.91;119927;1143;65156;-93
2020/12/29 01:57:58;;;;;;;13.73;7.13;;;;;;;5.25;74.29;95826.70;119939;1143;65108;-89
2020/12/29 02:00:25;;;;;;;17.97;8.63;;;;;;;5.32;74.39;95835.67;119909;1144;65154;-90
2020/12/29 02:02:51;;;;;;;13.80;7.57;;;;;;;5.37;73.86;95832.56;119971;1144;65182;-89
2020/12/29 02:05:18;;;;;;;12.73;6.50;;;;;;;5.40;73.63;95824.29;119911;1144;65137;-88
2020/12/29 02:07:48;;;;;;;11.70;7.07;;;;;;;5.39;73.73;95830.58;119912;1144;65126;-89
2020/12/29 02:10:15;;;;;;;11.57;6.30;;;;;;;5.38;73.75;95842.98;119966;1144;65181;-92
2020/12/29 02:12:42;;;;;;;8.55;5.80;;;;;;;5.38;73.76;95844.80;119811;1144;65231;-91
2020/12/29 02:15:08;;;;;;;9.47;5.77;;;;;;;5.40;74.27;95856.05;119939;1143;65095;-88
2020/12/29 02:17:35;;;;;;;8.73;6.27;;;;;;;5.40;73.99;95848.11;119902;1143;65086;-91
2020/12/29 02:20:04;;;;;;;10.03;6.03;;;;;;;5.39;73.59;95841.16;119944;1143;65129;-91
2020/12/29 02:22:31;;;;;;;11.07;6.23;;;;;;;5.38;73.79;95844.80;119887;1143;65019;-91
2020/12/29 02:25:06;;;;;;;8.67;5.33;;;;;;;5.36;73.49;95849.42;119908;1144;65381;-89
2020/12/29 02:27:45;;;;;;;7.87;5.17;;;;;;;5.32;74.17;95856.83;119938;1144;65095;-92
2020/12/29 02:30:12;;;;;;;7.67;4.93;;;;;;;5.26;74.28;95862.75;119972;1144;65144;-89
2020/12/29 02:32:39;;;;;;;8.13;6.00;;;;;;;5.22;73.50;95855.30;119936;1144;65092;-89
2020/12/29 02:35:08;;;;;;;8.95;5.70;;;;;;;5.21;73.87;95857.09;119926;1144;65165;-90
2020/12/29 02:37:34;;;;;;;7.30;4.90;;;;;;;5.19;73.93;95851.13;119865;1144;65187;-88
2020/12/29 02:40:01;;;;;;;7.87;5.40;;;;;;;5.19;73.70;95850.30;119949;1144;65095;-87
2020/12/29 02:42:27;;;;;;;8.77;6.07;;;;;;;5.17;73.86;95855.76;119898;1144;65200;-88
2020/12/29 02:44:53;;;;;;;9.90;6.63;;;;;;;5.15;73.96;95853.27;120057;1143;65025;-89
2020/12/29 02:47:20;;;;;;;9.23;6.83;;;;;;;5.13;74.29;95847.28;119799;1144;65201;-89
2020/12/29 02:49:46;;;;;;;14.80;8.50;;;;;;;5.09;73.62;95843.31;119977;1144;65264;-94
2020/12/29 02:52:13;;;;;;;12.27;8.50;;;;;;;5.05;73.65;95863.11;120099;1144;65081;-87
2020/12/29 02:54:39;;;;;;;11.60;8.00;;;;;;;5.03;73.68;95867.73;120488;1144;65027;-92
2020/12/29 02:57:06;;;;;;;14.90;9.95;;;;;;;4.99;73.92;95857.61;120168;1144;65223;-90
2020/12/29 02:59:32;;;;;;;14.47;8.83;;;;;;;4.97;73.66;95852.48;120037;1144;65092;-90
2020/12/29 03:01:58;;;;;;;12.10;8.47;;;;;;;4.95;73.76;95851.78;119954;1144;65094;-91
2020/12/29 03:04:25;;;;;;;13.40;8.23;;;;;;;4.94;74.31;95857.23;119984;1143;65130;-90
2020/12/29 03:06:51;;;;;;;17.13;9.33;;;;;;;4.93;73.68;95850.29;119931;1144;65041;-92
2020/12/29 03:09:18;;;;;;;16.17;9.17;;;;;;;4.94;73.58;95852.77;119953;1142;65114;-87
2020/12/29 03:11:45;;;;;;;19.40;8.87;;;;;;;4.94;74.00;95846.66;119940;1144;64981;-89
2020/12/29 03:14:12;;;;;;;16.93;10.07;;;;;;;4.93;74.12;95839.71;119913;1143;65079;-90
2020/12/29 03:16:39;;;;;;;19.63;10.77;;;;;;;4.91;73.95;95845.16;119965;1143;65086;-89
2020/12/29 03:19:05;;;;;;;19.77;11.10;;;;;;;4.88;73.47;95853.39;119887;1143;65111;-92
2020/12/29 03:21:32;;;;;;;18.90;11.15;;;;;;;4.85;74.04;95853.70;119922;1144;65100;-90
2020/12/29 03:23:58;;;;;;;17.30;10.75;;;;;;;4.79;73.78;95849.86;119870;1144;65092;-88
2020/12/29 03:26:25;;;;;;;16.65;10.75;;;;;;;4.74;73.99;95853.94;119853;1143;65604;-90
2020/12/29 03:28:54;;;;;;;19.73;11.90;;;;;;;4.68;74.07;95843.98;119999;1143;65082;-91
2020/12/29 03:31:20;;;;;;;21.75;12.65;;;;;;;4.60;73.45;95834.17;120103;1143;65096;-89
2020/12/29 03:33:47;;;;;;;18.07;12.80;;;;;;;4.54;73.49;95847.99;119979;1143;65108;-91
2020/12/29 03:36:13;;;;;;;22.20;11.23;;;;;;;4.51;73.59;95859.67;119989;1144;65152;-90
2020/12/29 03:38:40;;;;;;;22.83;11.90;;;;;;;4.51;73.63;95870.24;119939;1144;64972;-91
2020/12/29 03:41:06;;;;;;;19.37;11.95;;;;;;;4.52;73.75;95885.14;119972;1144;65063;-90
2020/12/29 03:43:33;;;;;;;24.80;14.00;;;;;;;4.53;73.95;95878.88;120055;1143;65060;-90
2020/12/29 03:45:59;;;;;;;25.10;13.30;;;;;;;4.55;73.99;95881.36;119969;1143;65191;-89
2020/12/29 03:48:26;;;;;;;25.63;13.43;;;;;;;4.52;73.91;95868.46;119934;1144;65009;-89
2020/12/29 03:50:53;;;;;;;25.97;14.97;;;;;;;4.48;74.46;95878.48;120073;1144;65204;-92
2020/12/29 03:53:20;;;;;;;22.90;13.60;;;;;;;4.44;73.73;95884.22;120183;1144;65102;-89
2020/12/29 03:55:46;;;;;;;22.27;13.37;;;;;;;4.40;73.93;95881.06;119972;1143;65101;-90
2020/12/29 03:58:13;;;;;;;21.73;12.33;;;;;;;4.36;73.56;95884.97;120044;1144;65101;-91
2020/12/29 04:00:41;;;;;;;23.97;12.23;;;;;;;4.34;73.54;95871.09;120255;1143;65093;-91
2020/12/29 04:03:08;;;;;;;19.95;11.20;;;;;;;4.34;73.93;95861.35;120040;1144;65009;-90
2020/12/29 04:05:34;;;;;;;20.27;10.80;;;;;;;4.34;73.63;95879.84;119998;1144;65101;-94
2020/12/29 04:08:01;;;;;;;19.40;11.00;;;;;;;4.34;74.07;95887.77;120008;1143;65059;-93
2020/12/29 04:10:27;;;;;;;22.00;12.20;;;;;;;4.35;74.26;95893.87;119843;1144;65066;-92
2020/12/29 04:12:53;;;;;;;21.60;11.70;;;;;;;4.36;73.93;95898.18;120091;1143;65082;-91
2020/12/29 04:15:20;;;;;;;22.53;12.27;;;;;;;4.35;74.10;95901.80;119998;1143;65185;-90
2020/12/29 04:17:46;;;;;;;22.47;12.37;;;;;;;4.36;74.04;95886.78;120027;1144;65150;-89
2020/12/29 04:20:13;;;;;;;25.03;12.57;;;;;;;4.34;74.14;95887.77;119898;1144;65181;-90
2020/12/29 04:22:41;;;;;;;26.90;13.10;;;;;;;4.33;73.48;95886.11;119958;1144;65073;-90
2020/12/29 04:25:09;;;;;;;19.50;11.17;;;;;;;4.28;74.01;95877.80;119912;1144;64967;-88
2020/12/29 04:27:39;;;;;;;22.47;11.03;;;;;;;4.25;74.03;95882.53;120023;1143;65171;-90
2020/12/29 04:30:07;;;;;;;20.57;10.93;;;;;;;4.21;73.46;95889.94;119902;1144;65079;-88
2020/12/29 04:32:34;;;;;;;17.60;10.70;;;;;;;4.22;73.75;95896.05;119926;1144;65190;-89
2020/12/29 04:35:01;;;;;;;17.23;10.40;;;;;;;4.21;73.64;95891.75;119883;1143;65098;-90
2020/12/29 04:37:28;;;;;;;17.53;10.40;;;;;;;4.22;73.83;95885.48;119876;1144;65072;-94
2020/12/29 04:39:55;;;;;;;21.63;12.47;;;;;;;4.20;74.10;95896.21;119902;1144;65175;-91
2020/12/29 04:42:23;;;;;;;31.63;15.33;;;;;;;4.17;74.13;95879.81;119919;1144;65477;-91
2020/12/29 04:44:51;;;;;;;22.83;12.30;;;;;;;4.12;73.53;95880.25;119974;1144;65076;-92
2020/12/29 04:47:19;;;;;;;23.03;11.83;;;;;;;4.05;73.67;95887.11;120067;1143;65089;-89
2020/12/29 04:49:46;;;;;;;20.27;11.33;;;;;;;3.98;73.65;95892.15;119896;1144;65086;-90
2020/12/29 04:52:13;;;;;;;20.53;11.90;;;;;;;3.92;74.03;95897.19;119903;1143;65213;-92
2020/12/29 04:54:41;;;;;;;26.00;13.80;;;;;;;3.89;73.86;95908.05;119892;1143;65114;-90
2020/12/29 04:57:09;;;;;;;24.97;13.77;;;;;;;3.84;74.27;95907.66;119885;1144;65133;-92
2020/12/29 04:59:37;;;;;;;25.20;11.95;;;;;;;3.83;73.86;95917.38;119970;1144;65161;-91
2020/12/29 05:02:04;;;;;;;25.55;12.55;;;;;;;3.82;73.83;95907.80;120021;1143;65152;-92
2020/12/29 05:04:31;;;;;;;20.30;11.83;;;;;;;3.79;73.98;95911.55;120068;1143;65079;-90
2020/12/29 05:06:58;;;;;;;17.93;10.30;;;;;;;3.78;73.69;95919.62;119828;1144;65068;-90
2020/12/29 05:09:26;;;;;;;18.07;10.27;;;;;;;3.75;74.23;95927.81;119929;1144;65165;-92
2020/12/29 05:11:54;;;;;;;20.30;9.97;;;;;;;3.74;73.72;95936.70;119959;1144;65101;-89
2020/12/29 05:14:22;;;;;;;18.07;9.57;;;;;;;3.70;73.78;95946.73;119963;1144;65159;-90
2020/12/29 05:16:52;;;;;;;13.53;8.97;;;;;;;3.70;74.39;95956.47;120074;1144;65165;-91
2020/12/29 05:19:21;;;;;;;16.57;9.37;;;;;;;3.68;73.92;95953.12;120124;1143;65108;-89
2020/12/29 05:21:48;;;;;;;14.33;8.33;;;;;;;3.65;73.23;95958.70;120058;1144;65185;-92
2020/12/29 05:24:16;;;;;;;17.27;8.87;;;;;;;3.62;74.00;95969.52;119937;1144;65111;-92
2020/12/29 05:26:45;;;;;;;14.70;8.90;;;;;;;3.59;74.14;95967.19;119974;1144;65117;-92
2020/12/29 05:29:12;;;;;;;17.83;9.40;;;;;;;3.55;73.65;95974.54;120008;1143;65631;-92
2020/12/29 05:31:45;;;;;;;14.87;8.23;;;;;;;3.52;74.19;95977.48;119943;1143;65197;-89
2020/12/29 05:34:28;;;;;;;17.17;9.43;;;;;;;3.46;73.84;95965.69;119958;1144;65432;-90
2020/12/29 05:36:56;;;;;;;14.20;7.80;;;;;;;3.40;73.59;95982.08;120008;1144;65119;-92
2020/12/29 05:39:25;;;;;;;14.73;8.13;;;;;;;3.36;73.54;95999.15;119937;1144;65175;-92
2020/12/29 05:41:55;;;;;;;12.60;7.13;;;;;;;3.35;73.65;96000.13;120069;1144;65273;-89
2020/12/29 05:44:24;;;;;;;11.93;6.97;;;;;;;3.34;73.90;96006.38;119905;1144;65120;-92
2020/12/29 05:46:50;;;;;;;11.60;7.57;;;;;;;3.32;73.83;96018.88;119959;1143;65047;-91
2020/12/29 05:49:20;;;;;;;16.83;8.20;;;;;;;3.30;74.05;96025.25;119938;1144;65066;-90
2020/12/29 05:51:49;;;;;;;17.23;8.63;;;;;;;3.26;73.44;96029.98;119935;1144;65011;-90
2020/12/29 05:54:16;;;;;;;14.13;8.57;;;;;;;3.23;73.86;96036.36;119996;1144;65099;-89
2020/12/29 05:56:44;;;;;;;13.20;7.80;;;;;;;3.19;73.53;96039.44;120024;1144;65216;-90
2020/12/29 05:59:13;;;;;;;16.03;8.23;;;;;;;3.16;73.79;96048.44;119939;1144;65195;-92
2020/12/29 06:01:47;;;;;;;14.20;8.03;;;;;;;3.14;73.70;96060.94;119982;1144;65571;-90
2020/12/29 06:04:13;;;;;;;12.93;7.70;;;;;;;3.14;73.66;96075.92;119907;1143;65111;-94
2020/12/29 06:06:42;;;;;;;12.13;6.77;;;;;;;3.13;73.85;96074.27;119953;1143;65091;-88
2020/12/29 06:09:11;;;;;;;16.70;9.55;;;;;;;3.12;73.92;96069.97;119972;1144;65097;-92
2020/12/29 06:11:39;;;;;;;22.20;10.90;;;;;;;3.08;74.01;96077.30;119942;1143;65117;-90
2020/12/29 06:14:16;;;;;;;26.80;13.20;;;;;;;3.05;73.55;96074.92;119967;1144;65078;-90
2020/12/29 06:16:43;;;;;;;25.65;12.20;;;;;;;3.01;73.94;96077.99;119917;1144;65155;-91
2020/12/29 06:19:30;;;;;;;18.93;10.33;;;;;;;2.95;74.17;96095.19;119942;1143;65098;-91
2020/12/29 06:22:09;;;;;;;17.30;9.30;;;;;;;2.87;74.00;96108.21;119971;1144;65127;-90
2020/12/29 06:24:41;;;;;;;16.60;9.23;;;;;;;2.80;73.95;96115.83;119985;1144;65092;-90
2020/12/29 06:27:10;;;;;;;15.67;9.20;;;;;;;2.78;74.13;96125.64;120032;1144;65194;-90
2020/12/29 06:29:41;;;;;;;15.33;8.37;;;;;;;2.78;73.69;96130.09;120025;1144;65585;-93
2020/12/29 06:32:10;;;;;;;15.80;8.60;;;;;;;2.79;74.02;96135.22;119991;1144;65246;-91
2020/12/29 06:34:38;;;;;;;17.30;9.43;;;;;;;2.80;73.55;96136.05;120027;1144;65028;-89
2020/12/29 06:37:16;;;;;;;20.65;9.40;;;;;;;2.77;73.56;96142.43;120110;1143;65015;-92
2020/12/29 06:39:49;;;;;;;19.20;9.33;;;;;;;2.76;74.15;96146.04;120153;1143;65201;-90
2020/12/29 06:42:18;;;;;;;19.00;10.53;;;;;;;2.75;73.80;96144.37;119996;1144;65020;-91
2020/12/29 06:44:44;;;;;;;17.73;9.70;;;;;;;2.75;73.68;96156.72;120017;1144;65166;-91
2020/12/29 06:47:12;;;;;;;16.03;9.77;;;;;;;2.75;73.30;96156.72;120048;1143;65178;-92
2020/12/29 06:49:43;;;;;;;16.87;8.10;;;;;;;2.74;73.80;96163.80;119962;1144;65100;-90
2020/12/29 06:52:28;;;;;;;13.27;8.43;;;;;;;2.77;73.90;96165.31;119931;1144;65194;-90
2020/12/29 06:54:57;;;;;;;13.67;7.77;;;;;;;2.78;73.46;96174.88;119972;1143;65146;-91
2020/12/29 06:57:35;;;;;;;11.57;7.50;;;;;;;2.77;73.19;96179.33;120042;1143;65119;-91
2020/12/29 07:00:23;;;;;;;15.13;8.33;;;;;;;2.73;73.29;96188.45;120152;1143;65089;-90
2020/12/29 07:02:53;;;;;;;21.33;11.30;;;;;;;2.69;73.36;96197.61;120075;1144;65145;-90
2020/12/29 07:05:27;;;;;;;20.00;10.85;;;;;;;2.66;73.70;96213.66;120125;1143;64960;-89
2020/12/29 07:07:58;;;;;;;38.77;20.53;;;;;;;2.61;73.64;96218.52;120143;1143;65048;-90
2020/12/29 07:10:45;;;;;;;46.83;23.50;;;;;;;2.58;73.88;96229.30;119993;1144;65194;-89
2020/12/29 07:13:11;;;;;;;45.43;22.87;;;;;;;2.54;73.95;96239.25;120115;1143;65100;-89
2020/12/29 07:16:11;;;;;;;41.57;21.43;;;;;;;2.52;73.55;96242.98;120037;1143;65070;-91
2020/12/29 07:18:43;;;;;;;32.57;15.40;;;;;;;2.49;73.40;96259.06;120001;1144;65052;-89
2020/12/29 07:21:25;;;;;;;22.40;10.75;;;;;;;2.48;73.58;96267.91;120044;1144;65107;-89
2020/12/29 07:23:53;;;;;;;21.40;9.60;;;;;;;2.48;73.67;96262.64;119990;1143;65108;-89
2020/12/29 07:26:21;;;;;;;22.67;11.33;;;;;;;2.47;73.91;96261.80;120408;1144;65078;-89
2020/12/29 07:28:56;;;;;;;25.90;12.83;;;;;;;2.47;73.30;96276.78;120184;1144;65222;-91
2020/12/29 07:31:23;;;;;;;26.00;12.27;;;;;;;2.44;73.11;96275.25;120441;1144;65057;-89
2020/12/29 07:33:55;;;;;;;21.73;11.73;;;;;;;2.45;73.76;96279.55;120027;1144;65162;-90
2020/12/29 07:36:23;;;;;;;22.37;10.67;;;;;;;2.42;73.50;96270.12;120037;1143;64982;-91
2020/12/29 07:38:50;;;;;;;22.30;10.75;;;;;;;2.39;73.27;96270.36;120117;1144;65065;-90
2020/12/29 07:41:18;;;;;;;29.23;12.90;;;;;;;2.38;73.65;96276.59;119925;1144;65066;-88
2020/12/29 07:43:46;;;;;;;18.60;10.80;;;;;;;2.39;73.27;96293.23;120130;1143;65083;-92
2020/12/29 07:46:14;;;;;;;21.10;11.53;;;;;;;2.39;73.18;96291.42;120192;1143;65207;-92
2020/12/29 07:48:40;;;;;;;22.00;11.77;;;;;;;2.40;73.12;96290.45;120104;1143;65207;-89
2020/12/29 07:51:07;;;;;;;24.17;11.17;;;;;;;2.40;73.37;96303.63;120072;1144;65066;-90
2020/12/29 07:53:33;;;;;;;23.80;11.87;;;;;;;2.39;73.59;96294.06;119975;1143;65104;-91
2020/12/29 07:56:00;;;;;;;42.40;18.10;;;;;;;2.39;73.67;96301.95;120598;1143;65184;-87
2020/12/29 07:58:26;;;;;;;42.97;17.03;;;;;;;2.39;73.50;96301.95;120500;1144;65186;-92
2020/12/29 08:00:53;;;;;;;29.70;13.93;;;;;;;2.42;72.72;96304.36;120453;1144;65240;-91
2020/12/29 08:03:19;;;;;;;21.43;11.10;;;;;;;2.47;73.46;96314.48;120258;1144;65184;-88
2020/12/29 08:05:46;;;;;;;23.30;11.50;;;;;;;2.53;73.32;96308.70;120330;1144;65092;-88
2020/12/29 08:08:16;;;;;;;20.65;10.60;;;;;;;2.59;73.20;96307.36;120333;1144;65101;-91
2020/12/29 08:10:44;;;;;;;19.33;10.97;;;;;;;2.65;73.68;96309.48;120488;1143;65178;-90
2020/12/29 08:13:13;;;;;;;23.97;12.87;;;;;;;2.72;73.35;96315.91;120510;1143;65111;-90
2020/12/29 08:15:42;;;;;;;25.07;13.30;;;;;;;2.74;73.09;96315.80;120686;1144;65129;-90
2020/12/29 08:18:09;;;;;;;22.05;13.65;;;;;;;2.78;72.84;96325.10;120304;1144;65041;-88
2020/12/29 08:20:57;;;;;;;24.47;13.83;;;;;;;2.80;73.42;96326.66;120187;1144;65067;-90
2020/12/29 08:23:29;;;;;;;23.30;13.77;;;;;;;2.85;73.01;96328.89;120238;1143;65073;-90
2020/12/29 08:25:57;;;;;;;23.43;12.67;;;;;;;2.90;73.21;96335.44;120008;1143;65147;-91
2020/12/29 08:28:26;;;;;;;24.47;13.03;;;;;;;3.00;73.12;96322.34;119966;1144;65072;-89
2020/12/29 08:30:57;;;;;;;29.03;15.50;;;;;;;3.08;73.23;96314.59;120411;1143;65130;-89
2020/12/29 08:33:25;;;;;;;26.90;14.87;;;;;;;3.13;72.91;96320.31;120071;1143;65197;-87
2020/12/29 08:35:54;;;;;;;27.33;15.57;;;;;;;3.17;73.20;96324.34;119932;1144;65072;-89
2020/12/29 08:38:37;;;;;;;37.60;18.53;;;;;;;3.21;73.23;96338.11;119977;1144;65167;-89
2020/12/29 08:41:04;;;;;;;27.90;14.23;;;;;;;3.26;72.91;96351.75;120230;1143;65123;-91
2020/12/29 08:43:40;;;;;;;14.67;9.13;;;;;;;3.34;73.36;96354.55;120293;1144;65155;-88
2020/12/29 08:46:08;;;;;;;14.35;8.45;;;;;;;3.50;73.23;96365.47;120164;1144;65246;-89
2020/12/29 08:48:35;;;;;;;23.63;11.27;;;;;;;3.63;73.12;96373.16;120044;1144;65155;-90
2020/12/29 08:51:17;;;;;;;14.90;9.75;;;;;;;3.72;72.64;96369.70;119771;1143;65175;-88
2020/12/29 08:53:43;;;;;;;19.67;9.83;;;;;;;3.82;72.70;96388.23;119918;1143;65065;-92
2020/12/29 08:56:26;;;;;;;37.13;16.10;;;;;;;3.92;72.58;96377.68;120022;1144;65097;-88
2020/12/29 08:58:54;;;;;;;26.27;12.57;;;;;;;4.02;73.10;96389.13;119944;1144;65178;-89
2020/12/29 09:01:37;;;;;;;31.70;13.67;;;;;;;4.07;72.29;96392.16;120000;1144;65092;-90
2020/12/29 09:04:43;;;;;;;27.10;13.85;;;;;;;4.12;72.51;96394.41;119968;1144;65002;-91
2020/12/29 09:07:14;;;;;;;36.30;18.17;;;;;;;4.15;72.54;96402.91;120029;1143;65091;-90
2020/12/29 09:09:50;;;;;;;35.15;15.20;;;;;;;4.17;72.40;96403.59;120027;1144;65105;-89
2020/12/29 09:12:21;;;;;;;35.70;17.53;;;;;;;4.18;72.56;96415.83;120081;1144;65062;-92
2020/12/29 09:14:55;;;;;;;41.87;18.73;;;;;;;4.18;73.01;96428.20;119903;1144;65081;-89
2020/12/29 09:17:24;;;;;;;48.03;19.63;;;;;;;4.18;72.59;96436.96;119953;1144;65150;-88
2020/12/29 09:20:09;;;;;;;48.05;21.40;;;;;;;4.18;73.01;96446.69;119970;1144;65091;-88
2020/12/29 09:22:49;;;;;;;31.73;15.10;;;;;;;4.19;72.73;96449.19;119946;1144;65134;-89
2020/12/29 09:25:32;;;;;;;25.53;12.67;;;;;;;4.20;72.70;96445.61;119938;1144;65159;-89
2020/12/29 09:28:11;;;;;;;25.75;13.15;;;;;;;4.26;72.79;96447.71;119933;1143;65090;-93
2020/12/29 09:30:39;;;;;;;23.67;12.40;;;;;;;4.32;73.20;96451.59;120015;1144;65501;-91
2020/12/29 09:33:06;;;;;;;30.43;14.30;;;;;;;4.40;72.83;96456.22;119966;1143;65166;-92
2020/12/29 09:35:33;;;;;;;20.13;10.60;;;;;;;4.43;71.82;96442.72;120005;1144;65095;-90
2020/12/29 09:38:01;;;;;;;24.33;13.37;;;;;;;4.45;71.96;96456.63;119977;1143;65105;-89
2020/12/29 09:40:29;;;;;;;23.83;10.40;;;;;;;4.47;72.65;96449.42;120087;1143;65207;-91
2020/12/29 09:42:56;;;;;;;22.27;11.30;;;;;;;4.49;72.64;96458.87;120031;1143;65093;-92
2020/12/29 09:45:25;;;;;;;19.87;9.80;;;;;;;4.55;71.75;96458.33;120150;1144;65588;-89
2020/12/29 09:47:52;;;;;;;20.03;10.13;;;;;;;4.63;72.38;96464.73;120074;1143;65047;-90
2020/12/29 09:50:19;;;;;;;18.67;9.37;;;;;;;4.78;72.38;96461.56;120205;1144;65086;-94
2020/12/29 09:52:45;;;;;;;23.03;11.63;;;;;;;5.02;72.45;96471.70;119987;1144;65130;-91
2020/12/29 09:55:12;;;;;;;18.23;10.53;;;;;;;5.22;71.94;96477.86;119931;1144;65076;-89
2020/12/29 09:57:38;;;;;;;22.40;11.60;;;;;;;5.39;71.93;96478.94;119905;1144;65604;-88
2020/12/29 10:00:07;;;;;;;22.75;11.95;;;;;;;5.60;70.90;96474.32;119867;1143;65083;-90
2020/12/29 10:02:40;;;;;;;25.27;12.00;;;;;;;5.80;71.14;96480.40;119964;1143;65034;-90
2020/12/29 10:05:06;;;;;;;19.93;10.67;;;;;;;6.09;71.06;96482.97;120144;1144;65092;-91
2020/12/29 10:07:32;;;;;;;29.50;14.95;;;;;;;6.41;71.00;96479.06;119994;1143;65178;-90
2020/12/29 10:09:59;;;;;;;35.55;15.75;;;;;;;6.58;71.39;96480.09;119998;1143;65069;-91
2020/12/29 10:12:25;;;;;;;33.60;14.20;;;;;;;6.72;70.70;96476.92;120290;1144;65094;-89
2020/12/29 10:14:52;;;;;;;32.57;14.73;;;;;;;6.88;70.43;96478.93;120062;1144;65055;-89
2020/12/29 10:17:19;;;;;;;30.90;14.00;;;;;;;6.96;70.40;96489.62;120008;1143;65149;-88
2020/12/29 10:19:46;;;;;;;25.27;12.70;;;;;;;6.85;69.83;96484.52;119974;1144;65242;-90
2020/12/29 10:22:13;;;;;;;16.97;9.77;;;;;;;6.65;70.40;96483.81;120078;1143;65111;-89
2020/12/29 10:24:40;;;;;;;30.90;15.50;;;;;;;6.43;69.79;96493.02;119942;1144;65095;-91
2020/12/29 10:27:06;;;;;;;31.57;15.23;;;;;;;6.27;70.87;96498.11;120059;1143;65043;-90
2020/12/29 10:29:32;;;;;;;24.10;13.43;;;;;;;6.11;70.19;96502.22;119975;1144;65037;-90
2020/12/29 10:31:59;;;;;;;21.82;11.33;;;;;;;6.03;70.80;96499.44;120114;1144;65149;-89
2020/12/29 10:34:25;;;;;;;18.70;9.23;;;;;;;6.02;70.65;96515.48;119936;1144;65127;-92
2020/12/29 10:36:52;;;;;;;18.43;10.53;;;;;;;6.01;70.39;96529.72;119906;1144;65088;-90
2020/12/29 10:39:18;;;;;;;19.73;11.37;;;;;;;5.99;69.78;96526.39;119878;1142;65066;-89
2020/12/29 10:41:45;;;;;;;18.23;9.47;;;;;;;6.03;69.03;96523.28;119956;1144;65191;-87
2020/12/29 10:44:11;;;;;;;18.17;9.80;;;;;;;5.99;68.78;96490.13;120029;1144;66321;-91
2020/12/29 10:46:38;;;;;;;18.27;9.40;;;;;;;5.94;68.80;96526.81;119945;1144;65100;-88
2020/12/29 10:49:05;;;;;;;18.50;9.70;;;;;;;5.91;69.41;96524.43;119914;1143;65062;-87
2020/12/29 10:51:31;;;;;;;16.43;9.57;;;;;;;6.11;70.10;96536.67;120002;1144;65219;-89
2020/12/29 10:53:58;;;;;;;14.97;8.90;;;;;;;6.29;69.87;96539.38;119913;1143;65068;-92
2020/12/29 10:56:25;;;;;;;16.10;7.57;;;;;;;6.40;69.85;96530.41;119986;1144;65152;-86
2020/12/29 10:58:52;;;;;;;18.10;8.93;;;;;;;6.49;67.90;96529.55;119847;1143;65162;-85
2020/12/29 11:01:23;;;;;;;14.25;7.65;;;;;;;6.55;68.19;96528.93;119921;1143;65500;-87
2020/12/29 11:03:51;;;;;;;16.83;6.77;;;;;;;6.59;68.98;96525.02;119918;1144;65014;-90
2020/12/29 11:06:20;;;;;;;15.33;7.90;;;;;;;6.75;68.56;96508.47;120078;1143;65085;-90
2020/12/29 11:08:49;;;;;;;15.50;8.13;;;;;;;6.80;67.62;96492.92;119913;1144;65111;-89
2020/12/29 11:11:16;;;;;;;13.53;7.60;;;;;;;6.85;66.66;96501.27;119988;1143;65246;-89
2020/12/29 11:13:43;;;;;;;10.60;6.93;;;;;;;6.81;67.14;96497.27;119843;1144;65134;-89
2020/12/29 11:16:20;;;;;;;12.30;7.47;;;;;;;6.85;67.96;96506.58;119831;1144;65178;-87
2020/12/29 11:18:49;;;;;;;21.87;10.93;;;;;;;6.93;68.31;96511.95;119907;1144;65092;-91
2020/12/29 11:21:17;;;;;;;14.53;6.83;;;;;;;7.00;66.60;96510.40;119913;1144;65245;-88
2020/12/29 11:23:45;;;;;;;17.67;9.00;;;;;;;7.08;68.11;96519.42;119941;1144;65075;-86
2020/12/29 11:26:16;;;;;;;11.43;7.23;;;;;;;7.10;67.67;96538.67;120384;1143;65088;-88
2020/12/29 11:28:43;;;;;;;11.33;6.50;;;;;;;7.11;66.32;96550.95;120010;1144;65091;-85
2020/12/29 11:31:14;;;;;;;11.05;6.45;;;;;;;7.02;65.83;96542.91;120159;1144;65184;-89